EDDC/DRS METAR and TAF weather

Enter ICAO airport designator
Station Type Date Time Source
EDDC METAR 2019/04/22 00:20 UTC NOAA

EDDC 220020Z 16003KT CAVOK 08/02 Q1018


Station Type Date Time Source
EDDC Decoded METAR 2019/04/22 00:20 UTC NOAA

Dresden-Klotzsche, Germany (EDDC) 51-08N 013-45E 232M
Apr 21, 2019 - 08:20 PM EDT / 2019.04.22 0020 UTC
Wind: from the SSE (160 degrees) at 3 MPH (3 KT):0
Visibility: greater than 7 mile(s):0
Temperature: 46 F (8 C)
Dew Point: 35 F (2 C)
Relative Humidity: 65%
Pressure (altimeter): 30.06 in. Hg (1018 hPa)
ob: EDDC 220020Z 16003KT CAVOK 08/02 Q1018
cycle: 0

Station Type Date Time Source
EDDC TAF 2019/04/21 18:27 UTC NOAA

TAF EDDC 211700Z 2118/2218 09006KT CAVOK
BECMG 2209/2212 08015G25KT
TEMPO 2212/2215 08020G30KT

Example: see airport list